createdAt,value
2018-12-17T00:00:50.288Z,0.60
2018-12-17T00:03:19.090Z,0.60
2018-12-17T00:05:52.055Z,0.60
2018-12-17T00:08:21.508Z,0.50
2018-12-17T00:10:51.080Z,0.60
2018-12-17T00:13:20.351Z,0.60
2018-12-17T00:15:50.306Z,0.60
2018-12-17T00:18:19.266Z,0.50
2018-12-17T00:20:48.830Z,0.60
2018-12-17T00:23:17.473Z,0.50
2018-12-17T00:25:46.181Z,0.50
2018-12-17T00:28:16.923Z,0.50
2018-12-17T00:30:47.016Z,0.50
2018-12-17T00:33:16.800Z,0.50
2018-12-17T00:35:47.115Z,0.50
2018-12-17T00:38:17.863Z,0.50
2018-12-17T00:40:47.236Z,0.50
2018-12-17T00:43:17.610Z,0.50
2018-12-17T00:45:46.991Z,0.50
2018-12-17T00:48:16.152Z,0.50
2018-12-17T00:50:45.555Z,0.40
2018-12-17T00:53:15.777Z,0.40
2018-12-17T00:55:45.684Z,0.40
2018-12-17T00:58:15.294Z,0.40
2018-12-17T01:00:44.937Z,0.40
2018-12-17T01:03:14.529Z,0.40
2018-12-17T01:05:44.288Z,0.40
2018-12-17T01:08:14.711Z,0.40
2018-12-17T01:10:45.128Z,0.40
2018-12-17T01:13:15.143Z,0.40
2018-12-17T01:15:43.842Z,0.40
2018-12-17T01:18:13.550Z,0.40
2018-12-17T01:20:42.755Z,0.40
2018-12-17T01:23:11.321Z,0.40
2018-12-17T01:25:40.273Z,0.40
2018-12-17T01:28:10.535Z,0.40
2018-12-17T01:30:39.899Z,0.40
2018-12-17T01:33:08.830Z,0.40
2018-12-17T01:35:38.204Z,0.40
2018-12-17T01:38:08.184Z,0.40
2018-12-17T01:40:38.212Z,0.40
2018-12-17T01:43:07.955Z,0.40
2018-12-17T01:45:36.524Z,0.40
2018-12-17T01:48:05.333Z,0.30
2018-12-17T01:50:34.887Z,0.30
2018-12-17T01:53:04.648Z,0.30
2018-12-17T01:55:34.314Z,0.30
2018-12-17T01:58:03.797Z,0.30
2018-12-17T02:00:34.248Z,0.30
2018-12-17T02:03:05.579Z,0.30
2018-12-17T02:05:35.431Z,0.30
2018-12-17T02:08:05.303Z,0.30
2018-12-17T02:10:35.829Z,0.30
2018-12-17T02:13:08.295Z,0.30
2018-12-17T02:15:38.147Z,0.30
2018-12-17T02:18:07.183Z,0.30
2018-12-17T02:20:36.301Z,0.30
2018-12-17T02:23:05.994Z,0.30
2018-12-17T02:25:34.579Z,0.30
2018-12-17T02:28:03.338Z,0.30
2018-12-17T02:30:33.096Z,0.30
2018-12-17T02:33:02.983Z,0.30
2018-12-17T02:35:33.004Z,0.30
2018-12-17T02:38:02.439Z,0.30
2018-12-17T02:40:32.763Z,0.30
2018-12-17T02:43:01.855Z,0.30
2018-12-17T02:48:15.758Z,0.30
2018-12-17T02:50:45.444Z,0.30
2018-12-17T02:53:14.887Z,0.30
2018-12-17T02:55:45.015Z,0.30
2018-12-17T02:58:15.098Z,0.30
2018-12-17T03:00:45.060Z,0.30
2018-12-17T03:03:14.967Z,0.30
2018-12-17T03:05:45.550Z,0.30
2018-12-17T03:08:16.235Z,0.30
2018-12-17T03:10:45.765Z,0.30
2018-12-17T03:13:15.023Z,0.30
2018-12-17T03:15:45.544Z,0.30
2018-12-17T03:18:17.868Z,0.30
2018-12-17T03:20:48.527Z,0.30
2018-12-17T03:23:18.823Z,0.20
2018-12-17T03:25:48.187Z,0.30
2018-12-17T03:28:17.859Z,0.30
2018-12-17T03:30:47.729Z,0.30
2018-12-17T03:33:17.623Z,0.30
2018-12-17T03:35:46.319Z,0.30
2018-12-17T03:38:14.532Z,0.30
2018-12-17T03:40:44.665Z,0.30
2018-12-17T03:43:14.679Z,0.30
2018-12-17T03:45:44.073Z,0.30
2018-12-17T03:48:13.859Z,0.30
2018-12-17T03:50:43.611Z,0.30
2018-12-17T03:53:13.071Z,0.30
2018-12-17T03:55:43.372Z,0.30
2018-12-17T03:58:12.128Z,0.30
2018-12-17T04:00:45.332Z,0.30
2018-12-17T04:03:14.195Z,0.30
2018-12-17T04:05:44.064Z,0.20
2018-12-17T04:08:14.017Z,0.20
2018-12-17T04:10:44.360Z,0.20
2018-12-17T04:13:14.348Z,0.10
2018-12-17T04:15:43.531Z,0.10
2018-12-17T04:18:12.515Z,0.00
2018-12-17T04:20:42.364Z,0.00
2018-12-17T04:23:11.786Z,0.00
2018-12-17T04:25:41.767Z,0.00
2018-12-17T04:28:11.427Z,0.00
2018-12-17T04:30:41.117Z,-0.10
2018-12-17T04:33:09.816Z,0.00
2018-12-17T04:35:40.023Z,-0.10
2018-12-17T04:38:10.509Z,0.00
2018-12-17T04:40:40.233Z,-0.10
2018-12-17T04:43:10.316Z,-0.10
2018-12-17T04:45:39.562Z,-0.20
2018-12-17T04:48:09.740Z,-0.20
2018-12-17T04:50:39.539Z,-0.20
2018-12-17T04:53:09.470Z,-0.20
2018-12-17T04:55:39.618Z,-0.30
2018-12-17T04:58:08.763Z,-0.40
2018-12-17T05:00:38.730Z,-0.30
2018-12-17T05:03:09.288Z,-0.40
2018-12-17T05:05:37.995Z,-0.40
2018-12-17T05:08:06.477Z,-0.40
2018-12-17T05:10:34.787Z,-0.40
2018-12-17T05:13:05.269Z,-0.40
2018-12-17T05:15:35.229Z,-0.40
2018-12-17T05:18:05.143Z,-0.40
2018-12-17T05:20:34.523Z,-0.30
2018-12-17T05:23:03.787Z,-0.30
2018-12-17T05:25:34.315Z,-0.30
2018-12-17T05:28:04.203Z,-0.20
2018-12-17T05:30:33.928Z,-0.20
2018-12-17T05:33:05.086Z,-0.20
2018-12-17T05:35:34.358Z,-0.10
2018-12-17T05:38:03.620Z,-0.10
2018-12-17T05:40:32.708Z,-0.10
2018-12-17T05:43:02.080Z,-0.10
2018-12-17T05:45:32.359Z,0.00
2018-12-17T05:48:03.075Z,-0.10
2018-12-17T05:50:32.909Z,-0.10
2018-12-17T05:53:02.388Z,-0.10
2018-12-17T05:55:31.939Z,-0.10
2018-12-17T05:58:02.215Z,0.00
2018-12-17T06:00:31.723Z,0.00
2018-12-17T06:03:01.027Z,0.00
2018-12-17T06:05:30.403Z,0.00
2018-12-17T06:08:00.227Z,0.00
2018-12-17T06:10:29.182Z,0.00
2018-12-17T06:12:58.848Z,0.00
2018-12-17T06:15:27.405Z,0.00
2018-12-17T06:17:58.156Z,0.00
2018-12-17T06:20:28.280Z,0.00
2018-12-17T06:22:57.915Z,-0.10
2018-12-17T06:25:27.156Z,-0.10
2018-12-17T06:27:57.338Z,-0.10
2018-12-17T06:30:27.368Z,-0.20
2018-12-17T06:32:56.910Z,-0.30
2018-12-17T06:35:30.251Z,-0.40
2018-12-17T06:38:03.591Z,-0.50
2018-12-17T06:40:33.548Z,-0.60
2018-12-17T06:43:03.415Z,-0.60
2018-12-17T06:45:34.572Z,-0.60
2018-12-17T06:48:04.019Z,-0.50
2018-12-17T06:50:34.791Z,-0.40
2018-12-17T06:53:04.143Z,-0.50
2018-12-17T06:55:33.930Z,-0.50
2018-12-17T06:58:03.263Z,-0.50
2018-12-17T07:00:33.287Z,-0.30
2018-12-17T07:03:03.239Z,-0.30
2018-12-17T07:05:33.150Z,-0.30
2018-12-17T07:08:03.677Z,-0.20
2018-12-17T07:10:34.108Z,-0.30
2018-12-17T07:13:02.727Z,-0.30
2018-12-17T07:15:31.461Z,-0.30
2018-12-17T07:18:03.813Z,-0.30
2018-12-17T07:20:33.472Z,-0.40
2018-12-17T07:23:02.840Z,-0.40
2018-12-17T07:25:32.293Z,-0.40
2018-12-17T07:28:02.062Z,-0.50
2018-12-17T07:30:31.503Z,-0.50
2018-12-17T07:33:01.362Z,-0.50
2018-12-17T07:35:30.711Z,-0.50
2018-12-17T07:38:00.248Z,-0.50
2018-12-17T07:40:29.319Z,-0.50
2018-12-17T07:42:58.401Z,-0.50
2018-12-17T07:45:28.315Z,-0.50
2018-12-17T07:47:58.956Z,-0.50
2018-12-17T07:50:27.928Z,-0.50
2018-12-17T07:52:57.040Z,-0.50
2018-12-17T07:55:26.405Z,-0.50
2018-12-17T07:57:55.999Z,-0.50
2018-12-17T08:00:25.635Z,-0.50
2018-12-17T08:02:55.363Z,-0.50
2018-12-17T08:05:25.007Z,-0.50
2018-12-17T08:07:54.348Z,-0.40
2018-12-17T08:10:23.591Z,-0.50
2018-12-17T08:12:52.994Z,-0.50
2018-12-17T08:15:21.211Z,-0.50
2018-12-17T08:17:54.516Z,-0.50
2018-12-17T08:20:24.444Z,-0.50
2018-12-17T08:22:53.399Z,-0.50
2018-12-17T08:25:21.924Z,-0.50
2018-12-17T08:27:51.023Z,-0.50
2018-12-17T08:30:21.060Z,-0.50
2018-12-17T08:32:51.337Z,-0.50
2018-12-17T08:35:20.019Z,-0.50
2018-12-17T08:37:49.408Z,-0.50
2018-12-17T08:40:21.032Z,-0.50
2018-12-17T08:42:50.220Z,-0.50
2018-12-17T08:45:19.338Z,-0.40
2018-12-17T08:47:48.659Z,-0.40
2018-12-17T08:50:17.864Z,-0.40
2018-12-17T08:52:48.161Z,-0.30
2018-12-17T08:55:17.171Z,-0.30
2018-12-17T08:57:46.911Z,-0.30
2018-12-17T09:00:16.058Z,-0.30
2018-12-17T09:02:45.283Z,-0.30
2018-12-17T09:05:13.895Z,-0.30
2018-12-17T09:07:43.866Z,-0.30
2018-12-17T09:10:12.627Z,-0.30
2018-12-17T09:12:41.653Z,-0.30
2018-12-17T09:15:10.354Z,-0.30
2018-12-17T09:17:39.329Z,-0.20
2018-12-17T09:20:08.288Z,-0.20
2018-12-17T09:22:37.767Z,-0.20
2018-12-17T09:25:07.867Z,-0.20
2018-12-17T09:27:37.761Z,-0.20
2018-12-17T09:30:08.107Z,-0.20
2018-12-17T09:32:37.647Z,-0.10
2018-12-17T09:35:07.469Z,-0.10
2018-12-17T09:37:37.833Z,0.00
2018-12-17T09:40:07.578Z,0.00
2018-12-17T09:42:37.863Z,0.00
2018-12-17T09:45:07.806Z,0.00
2018-12-17T09:47:38.410Z,0.00
2018-12-17T09:50:08.126Z,0.10
2018-12-17T09:52:38.091Z,0.10
2018-12-17T09:55:07.143Z,0.10
2018-12-17T09:57:36.889Z,0.00
2018-12-17T10:00:08.072Z,0.00
2018-12-17T10:02:37.431Z,0.00
2018-12-17T10:05:06.795Z,0.00
2018-12-17T10:07:37.023Z,0.00
2018-12-17T10:10:06.577Z,0.00
2018-12-17T10:12:36.655Z,0.00
2018-12-17T10:15:06.352Z,-0.10
2018-12-17T10:17:36.719Z,-0.10
2018-12-17T10:20:06.956Z,-0.10
2018-12-17T10:22:36.155Z,-0.10
2018-12-17T10:25:06.045Z,0.00
2018-12-17T10:27:35.129Z,0.00
2018-12-17T10:30:05.070Z,-0.10
2018-12-17T10:32:34.939Z,0.00
2018-12-17T10:35:04.755Z,0.00
2018-12-17T10:37:34.667Z,0.00
2018-12-17T10:40:05.356Z,0.10
2018-12-17T10:42:34.040Z,0.10
2018-12-17T10:45:02.547Z,0.10
2018-12-17T10:47:31.687Z,0.10
2018-12-17T10:50:00.772Z,0.00
2018-12-17T10:52:29.366Z,0.20
2018-12-17T10:54:59.283Z,0.10
2018-12-17T10:57:28.978Z,0.20
2018-12-17T10:59:59.075Z,0.30
2018-12-17T11:02:35.884Z,0.30
2018-12-17T11:05:13.835Z,0.30
2018-12-17T11:07:43.647Z,0.40
2018-12-17T11:10:12.827Z,0.50
2018-12-17T11:12:41.551Z,0.50
2018-12-17T11:15:10.599Z,0.50
2018-12-17T11:17:40.827Z,0.50
2018-12-17T11:20:11.108Z,0.50
2018-12-17T11:22:40.936Z,0.50
2018-12-17T11:25:10.022Z,0.50
2018-12-17T11:27:39.217Z,0.40
2018-12-17T11:30:10.018Z,0.40
2018-12-17T11:35:27.619Z,0.40
2018-12-17T11:37:56.571Z,0.40
2018-12-17T11:40:27.463Z,0.40
2018-12-17T11:42:59.091Z,0.50
2018-12-17T11:45:29.833Z,0.40
2018-12-17T11:48:00.520Z,0.40
2018-12-17T11:50:29.948Z,0.40
2018-12-17T11:53:00.283Z,0.40
2018-12-17T11:55:30.092Z,0.40
2018-12-17T11:58:09.258Z,0.40
2018-12-17T12:00:39.195Z,0.30
2018-12-17T12:03:08.714Z,0.30
2018-12-17T12:05:40.361Z,0.30
2018-12-17T12:08:10.887Z,0.20
2018-12-17T12:10:39.854Z,0.20
2018-12-17T12:13:08.615Z,0.20
2018-12-17T12:15:38.388Z,0.30
2018-12-17T12:18:08.712Z,0.20
2018-12-17T12:20:38.485Z,0.20
2018-12-17T12:23:08.762Z,0.20
2018-12-17T12:25:37.660Z,0.20
2018-12-17T12:28:07.597Z,0.30
2018-12-17T12:30:38.247Z,0.20
2018-12-17T12:33:07.582Z,0.20
2018-12-17T12:35:37.831Z,0.20
2018-12-17T12:38:07.706Z,0.20
2018-12-17T12:40:37.415Z,0.10
2018-12-17T12:43:07.685Z,0.20
2018-12-17T12:45:37.003Z,0.20
2018-12-17T12:48:06.094Z,0.20
2018-12-17T12:50:35.860Z,0.20
2018-12-17T12:53:04.937Z,0.20
2018-12-17T12:55:35.432Z,0.10
2018-12-17T12:58:04.407Z,0.10
2018-12-17T13:00:33.860Z,0.10
2018-12-17T13:03:03.807Z,0.10
2018-12-17T13:05:34.252Z,0.10
2018-12-17T13:08:03.486Z,0.10
2018-12-17T13:10:33.331Z,0.10
2018-12-17T13:13:02.780Z,0.10
2018-12-17T13:15:32.775Z,0.10
2018-12-17T13:18:03.083Z,0.10
2018-12-17T13:20:33.571Z,0.00
2018-12-17T13:23:03.427Z,0.00
2018-12-17T13:25:37.214Z,0.00
2018-12-17T13:28:07.094Z,0.00
2018-12-17T13:30:37.943Z,0.00
2018-12-17T13:33:07.352Z,0.00
2018-12-17T13:35:42.490Z,0.00
2018-12-17T13:38:12.503Z,0.00
2018-12-17T13:40:41.927Z,0.00
2018-12-17T13:43:11.827Z,0.00
2018-12-17T13:45:40.800Z,0.00
2018-12-17T13:48:09.768Z,0.00
2018-12-17T13:50:41.674Z,0.00
2018-12-17T13:53:16.831Z,-0.10
2018-12-17T13:55:46.464Z,0.00
2018-12-17T13:58:16.406Z,-0.10
2018-12-17T14:03:20.655Z,-0.10
2018-12-17T14:05:50.533Z,-0.10
2018-12-17T14:08:20.491Z,-0.10
2018-12-17T14:10:53.913Z,-0.10
2018-12-17T14:13:23.914Z,-0.10
2018-12-17T14:15:56.161Z,-0.10
2018-12-17T14:18:30.267Z,-0.10
2018-12-17T14:21:04.337Z,-0.10
2018-12-17T14:23:34.633Z,-0.10
2018-12-17T14:26:04.221Z,-0.20
2018-12-17T14:28:32.939Z,-0.20
2018-12-17T14:31:01.963Z,-0.20
2018-12-17T14:33:31.345Z,-0.20
2018-12-17T14:36:05.427Z,-0.20
2018-12-17T14:38:34.271Z,-0.20
2018-12-17T14:41:03.189Z,-0.20
2018-12-17T14:43:35.839Z,-0.20
2018-12-17T14:46:05.706Z,-0.20
2018-12-17T14:48:36.000Z,-0.20
2018-12-17T14:51:05.464Z,-0.20
2018-12-17T14:53:35.176Z,-0.20
2018-12-17T14:56:04.487Z,-0.20
2018-12-17T14:58:34.824Z,-0.20
2018-12-17T15:01:04.214Z,-0.20
2018-12-17T15:03:33.244Z,-0.30
2018-12-17T15:06:02.143Z,-0.30
2018-12-17T15:08:32.487Z,-0.30
2018-12-17T15:11:02.640Z,-0.30
2018-12-17T15:13:32.275Z,-0.30
2018-12-17T15:16:02.573Z,-0.30
2018-12-17T15:18:33.404Z,-0.30
2018-12-17T15:21:01.975Z,-0.30
2018-12-17T15:23:30.595Z,-0.30
2018-12-17T15:25:59.515Z,-0.40
2018-12-17T15:28:29.006Z,-0.40
2018-12-17T15:30:58.996Z,-0.40
2018-12-17T15:33:30.379Z,-0.40
2018-12-17T15:35:59.419Z,-0.40
2018-12-17T15:38:29.256Z,-0.40
2018-12-17T15:41:00.484Z,-0.40
2018-12-17T15:43:30.471Z,-0.40
2018-12-17T15:45:59.844Z,-0.40
2018-12-17T15:48:28.816Z,-0.40
2018-12-17T15:51:00.405Z,-0.40
2018-12-17T15:53:30.198Z,-0.40
2018-12-17T15:56:00.029Z,-0.30
2018-12-17T15:58:28.817Z,-0.40
2018-12-17T16:00:57.452Z,-0.40
2018-12-17T16:03:26.704Z,-0.40
2018-12-17T16:05:56.883Z,-0.40
2018-12-17T16:08:25.553Z,-0.40
2018-12-17T16:10:53.896Z,-0.40
2018-12-17T16:13:22.426Z,-0.30
2018-12-17T16:15:52.146Z,-0.30
2018-12-17T16:18:23.079Z,-0.40
2018-12-17T16:20:52.977Z,-0.40
2018-12-17T16:23:22.992Z,-0.40
2018-12-17T16:25:52.620Z,-0.30
2018-12-17T16:28:21.507Z,-0.40
2018-12-17T16:30:50.139Z,-0.40
2018-12-17T16:33:20.312Z,-0.40
2018-12-17T16:35:49.738Z,-0.40
2018-12-17T16:38:18.228Z,-0.40
2018-12-17T16:40:46.838Z,-0.40
2018-12-17T16:43:16.548Z,-0.40
2018-12-17T16:45:46.152Z,-0.40
2018-12-17T16:48:15.722Z,-0.40
2018-12-17T16:50:45.641Z,-0.40
2018-12-17T16:53:15.405Z,-0.40
2018-12-17T16:55:45.863Z,-0.40
2018-12-17T16:58:15.169Z,-0.40
2018-12-17T17:00:44.749Z,-0.40
2018-12-17T17:03:14.193Z,-0.40
2018-12-17T17:05:44.183Z,-0.50
2018-12-17T17:08:13.587Z,-0.50
2018-12-17T17:10:43.998Z,-0.50
2018-12-17T17:13:12.723Z,-0.50
2018-12-17T17:15:41.991Z,-0.50
2018-12-17T17:18:11.340Z,-0.50
2018-12-17T17:20:41.700Z,-0.50
2018-12-17T17:23:12.007Z,-0.50
2018-12-17T17:25:41.695Z,-0.50
2018-12-17T17:28:12.013Z,-0.50
2018-12-17T17:30:41.156Z,-0.50
2018-12-17T17:33:11.671Z,-0.50
2018-12-17T17:35:41.353Z,-0.50
2018-12-17T17:38:10.807Z,-0.50
2018-12-17T17:40:41.436Z,-0.50
2018-12-17T17:43:10.957Z,-0.50
2018-12-17T17:45:40.635Z,-0.60
2018-12-17T17:48:11.167Z,-0.60
2018-12-17T17:50:41.129Z,-0.60
2018-12-17T17:53:12.230Z,-0.60
2018-12-17T17:55:42.212Z,-0.70
2018-12-17T17:58:11.203Z,-0.60
2018-12-17T18:00:40.457Z,-0.60
2018-12-17T18:03:10.031Z,-0.60
2018-12-17T18:05:39.636Z,-0.60
2018-12-17T18:08:09.212Z,-0.60
2018-12-17T18:10:40.790Z,-0.70
2018-12-17T18:13:09.424Z,-0.60
2018-12-17T18:15:40.963Z,-0.70
2018-12-17T18:18:10.239Z,-0.60
2018-12-17T18:20:39.115Z,-0.60
2018-12-17T18:23:08.002Z,-0.70
2018-12-17T18:25:37.512Z,-0.60
2018-12-17T18:28:08.103Z,-0.70
2018-12-17T18:30:37.420Z,-0.60
2018-12-17T18:33:08.263Z,-0.70
2018-12-17T18:35:37.911Z,-0.70
2018-12-17T18:38:07.431Z,-0.70
2018-12-17T18:40:37.769Z,-0.70
2018-12-17T18:43:07.359Z,-0.60
2018-12-17T18:45:37.127Z,-0.70
2018-12-17T18:48:06.885Z,-0.70
2018-12-17T18:50:35.661Z,-0.70
2018-12-17T18:53:04.328Z,-0.70
2018-12-17T18:55:33.696Z,-0.70
2018-12-17T18:58:02.707Z,-0.70
2018-12-17T19:00:33.293Z,-0.70
2018-12-17T19:03:02.727Z,-0.70
2018-12-17T19:05:32.410Z,-0.70
2018-12-17T19:08:02.634Z,-0.60
2018-12-17T19:10:38.831Z,-0.70
2018-12-17T19:13:08.368Z,-0.70
2018-12-17T19:15:38.079Z,-0.70
2018-12-17T19:18:08.105Z,-0.70
2018-12-17T19:20:37.478Z,-0.70
2018-12-17T19:23:07.449Z,-0.70
2018-12-17T19:25:37.280Z,-0.70
2018-12-17T19:28:07.904Z,-0.70
2018-12-17T19:30:36.699Z,-0.70
2018-12-17T19:33:05.326Z,-0.70
2018-12-17T19:35:33.983Z,-0.70
2018-12-17T19:38:04.263Z,-0.70
2018-12-17T19:40:33.511Z,-0.70
2018-12-17T19:43:03.231Z,-0.70
2018-12-17T19:45:33.187Z,-0.70
2018-12-17T19:48:03.689Z,-0.80
2018-12-17T19:50:34.137Z,-0.80
2018-12-17T19:53:02.747Z,-0.80
2018-12-17T19:55:32.288Z,-0.80
2018-12-17T19:58:01.896Z,-0.80
2018-12-17T20:00:32.328Z,-0.80
2018-12-17T20:03:01.943Z,-0.70
2018-12-17T20:05:31.240Z,-0.80
2018-12-17T20:08:00.640Z,-0.80
2018-12-17T20:10:31.579Z,-0.80
2018-12-17T20:13:01.307Z,-0.80
2018-12-17T20:15:30.290Z,-0.80
2018-12-17T20:18:00.491Z,-0.80
2018-12-17T20:20:30.188Z,-0.80
2018-12-17T20:22:59.275Z,-0.80
2018-12-17T20:25:28.843Z,-0.80
2018-12-17T20:27:59.198Z,-0.70
2018-12-17T20:30:28.780Z,-0.70
2018-12-17T20:32:57.755Z,-0.70
2018-12-17T20:35:28.343Z,-0.70
2018-12-17T20:37:58.055Z,-0.70
2018-12-17T20:40:27.103Z,-0.70
2018-12-17T20:42:57.862Z,-0.60
2018-12-17T20:45:26.536Z,-0.60
2018-12-17T20:47:56.894Z,-0.60
2018-12-17T20:50:26.614Z,-0.60
2018-12-17T20:52:56.699Z,-0.60
2018-12-17T20:55:30.601Z,-0.60
2018-12-17T20:57:56.699Z,-0.60
2018-12-17T21:00:25.399Z,-0.60
2018-12-17T21:03:00.083Z,-0.60
2018-12-17T21:05:26.863Z,-0.60
2018-12-17T21:07:56.403Z,-0.60
2018-12-17T21:10:25.739Z,-0.60
2018-12-17T21:12:55.052Z,-0.60
2018-12-17T21:15:24.292Z,-0.60
2018-12-17T21:17:54.594Z,-0.60
2018-12-17T21:20:23.840Z,-0.60
2018-12-17T21:22:52.444Z,-0.60
2018-12-17T21:25:20.650Z,-0.60
2018-12-17T21:27:49.384Z,-0.60
2018-12-17T21:30:18.919Z,-0.60
2018-12-17T21:32:47.783Z,-0.60
2018-12-17T21:35:16.789Z,-0.50
2018-12-17T21:37:46.839Z,-0.60
2018-12-17T21:40:16.791Z,-0.50
2018-12-17T21:42:45.904Z,-0.50
2018-12-17T21:45:15.675Z,-0.50
2018-12-17T21:47:45.759Z,-0.50
2018-12-17T21:50:16.037Z,-0.50
2018-12-17T21:52:46.099Z,-0.50
2018-12-17T21:55:15.439Z,-0.50
2018-12-17T21:57:45.373Z,-0.50
2018-12-17T22:00:16.595Z,-0.50
2018-12-17T22:02:46.827Z,-0.50
2018-12-17T22:05:17.327Z,-0.50
2018-12-17T22:07:47.621Z,-0.50
2018-12-17T22:10:22.248Z,-0.50
2018-12-17T22:12:51.939Z,-0.50
2018-12-17T22:15:25.351Z,-0.50
2018-12-17T22:17:58.354Z,-0.40
2018-12-17T22:20:29.063Z,-0.50
2018-12-17T22:22:59.338Z,-0.50
2018-12-17T22:25:29.252Z,-0.50
2018-12-17T22:27:59.147Z,-0.50
2018-12-17T22:30:28.156Z,-0.50
2018-12-17T22:32:57.770Z,-0.50
2018-12-17T22:35:28.607Z,-0.50
2018-12-17T22:37:58.412Z,-0.50
2018-12-17T22:40:29.451Z,-0.50
2018-12-17T22:42:59.768Z,-0.50
2018-12-17T22:45:30.955Z,-0.50
2018-12-17T22:47:59.591Z,-0.50
2018-12-17T22:50:29.421Z,-0.50
2018-12-17T22:52:59.339Z,-0.50
2018-12-17T22:55:28.795Z,-0.50
2018-12-17T22:57:57.735Z,-0.40
2018-12-17T23:00:26.955Z,-0.50
2018-12-17T23:02:56.681Z,-0.40
2018-12-17T23:05:27.467Z,-0.40
2018-12-17T23:07:58.300Z,-0.40
2018-12-17T23:10:36.595Z,-0.50
2018-12-17T23:13:11.951Z,-0.50
2018-12-17T23:15:46.164Z,-0.50
2018-12-17T23:18:14.377Z,-0.40
2018-12-17T23:20:45.055Z,-0.50
2018-12-17T23:23:15.137Z,-0.40
2018-12-17T23:25:43.985Z,-0.40
2018-12-17T23:28:13.199Z,-0.50
2018-12-17T23:30:43.530Z,-0.50
2018-12-17T23:33:12.839Z,-0.50
2018-12-17T23:35:43.151Z,-0.40
2018-12-17T23:38:12.614Z,-0.50
2018-12-17T23:40:42.451Z,-0.50
2018-12-17T23:43:12.223Z,-0.50
2018-12-17T23:45:40.550Z,-0.50
2018-12-17T23:48:10.860Z,-0.50
2018-12-17T23:50:40.746Z,-0.50
2018-12-17T23:53:13.507Z,-0.50
2018-12-17T23:55:42.367Z,-0.50
2018-12-17T23:58:12.043Z,-0.50
